This is the latest recevied weather packets stored in our database for station/object IW1CBG-3. If no packets are shown the sender has not sent any weather packets the latest 10 day(s).
| Time | Temp. | Humidity | Pressure | Rain* | Wind** | Luminosity | Snow |
|---|---|---|---|---|---|---|---|
| 1787889548 | 18.33° C | 94% | 1028.7 hPa | 0 mm | - | - | - |
| 1787888947 | 18.89° C | 94% | 1028.7 hPa | 0 mm | - | - | - |
| 1787888348 | 18.89° C | 94% | 1029.1 hPa | 0 mm | - | - | - |
| 1787887748 | 18.89° C | 93% | 1028.7 hPa | 0 mm | - | - | - |
| 1787887147 | 18.89° C | 92% | 1028.6 hPa | 0 mm | - | - | - |
| 1787886548 | 18.89° C | 91% | 1029 hPa | 0 mm | - | - | - |
| 1787885948 | 18.89° C | 91% | 1029.3 hPa | 0 mm | - | - | - |
| 1787885349 | 18.89° C | 91% | 1029.3 hPa | 0 mm | - | - | - |
| 1787884748 | 19.44° C | 90% | 1028.9 hPa | 0 mm | - | - | - |
| 1787884149 | 19.44° C | 89% | 1028.3 hPa | 0 mm | - | - | - |
| 1787883548 | 19.44° C | 90% | 1028.2 hPa | 0 mm | - | - | - |
| 1787882947 | 19.44° C | 90% | 1028.3 hPa | 0 mm | - | - | - |
| 1787882348 | 19.44° C | 93% | 1027.9 hPa | 0 mm | - | - | - |
| 1787881748 | 20° C | 91% | 1028.6 hPa | 0 mm | - | - | - |
| 1787881148 | 20° C | 94% | 1028.2 hPa | 0 mm | - | - | - |
| 1787880547 | 20° C | 92% | 1028.3 hPa | 0 mm | - | - | - |
| 1787879947 | 20.56° C | 89% | 1028.5 hPa | 0 mm | - | - | - |
| 1787879348 | 20.56° C | 88% | 1027.7 hPa | 0 mm | - | - | - |
| 1787878749 | 21.67° C | 85% | 1027 hPa | 0 mm | - | - | - |
| 1787878147 | 22.22° C | 86% | 1027.3 hPa | 0 mm | - | - | - |
| 1787877548 | 20.56° C | 93% | 1028.9 hPa | 0 mm | - | - | - |
| 1787876947 | 20.56° C | 93% | 1028.6 hPa | 0 mm | - | - | - |
| 1787876348 | 20.56° C | 93% | 1028.5 hPa | 0 mm | - | - | - |
| 1787875748 | 20.56° C | 93% | 1028.8 hPa | 0 mm | - | - | - |
| 1787875149 | 20.56° C | 94% | 1029.5 hPa | 0 mm | - | - | - |
* Rain latest hour (hover to see other rain measurements)
** Current wind speed in m/s (hover to see current wind gust speed)